createdAt,value
2022-12-23T00:00:32.413Z,1002.05
2022-12-23T00:01:32.425Z,1002.01
2022-12-23T00:02:32.532Z,1002.03
2022-12-23T00:03:32.510Z,1002.01
2022-12-23T00:04:32.368Z,1002.00
2022-12-23T00:05:37.585Z,1002.01
2022-12-23T00:06:33.332Z,1002.00
2022-12-23T00:07:32.326Z,1002.01
2022-12-23T00:08:32.323Z,1001.94
2022-12-23T00:09:32.301Z,1001.97
2022-12-23T00:10:32.263Z,1001.98
2022-12-23T00:11:32.293Z,1001.98
2022-12-23T00:12:32.237Z,1001.98
2022-12-23T00:13:32.241Z,1001.97
2022-12-23T00:14:32.211Z,1001.96
2022-12-23T00:15:32.252Z,1001.94
2022-12-23T00:16:32.235Z,1001.91
2022-12-23T00:17:32.188Z,1001.94
2022-12-23T00:18:32.305Z,1001.92
2022-12-23T00:19:32.201Z,1001.92
2022-12-23T00:20:32.121Z,1001.93
2022-12-23T00:21:32.145Z,1001.93
2022-12-23T00:22:32.157Z,1001.96
2022-12-23T00:23:32.170Z,1001.93
2022-12-23T00:24:32.120Z,1001.90
2022-12-23T00:25:32.121Z,1001.91
2022-12-23T00:26:32.084Z,1001.91
2022-12-23T00:27:37.426Z,1001.95
2022-12-23T00:28:33.033Z,1001.95
2022-12-23T00:29:32.065Z,1001.98
2022-12-23T00:30:32.015Z,1001.96
2022-12-23T00:31:32.190Z,1002.01
2022-12-23T00:32:31.992Z,1002.02
2022-12-23T00:33:31.961Z,1002.03
2022-12-23T00:34:31.940Z,1002.08
2022-12-23T00:35:31.972Z,1002.07
2022-12-23T00:36:32.002Z,1002.04
2022-12-23T00:37:31.936Z,1002.04
2022-12-23T00:38:31.915Z,1001.99
2022-12-23T00:39:31.900Z,1002.00
2022-12-23T00:40:31.861Z,1001.99
2022-12-23T00:41:31.865Z,1002.01
2022-12-23T00:42:31.809Z,1001.99
2022-12-23T00:43:31.836Z,1002.03
2022-12-23T00:44:31.868Z,1002.01
2022-12-23T00:45:31.813Z,1002.00
2022-12-23T00:46:31.954Z,1002.00
2022-12-23T00:47:31.793Z,1002.00
2022-12-23T00:48:31.757Z,1002.02
2022-12-23T00:49:31.728Z,1002.04
2022-12-23T00:50:31.758Z,1002.07
2022-12-23T00:51:31.777Z,1002.04
2022-12-23T00:52:31.691Z,1002.07
2022-12-23T00:53:31.712Z,1002.12
2022-12-23T00:54:31.659Z,1002.19
2022-12-23T00:55:31.726Z,1002.15
2022-12-23T00:56:31.623Z,1002.19
2022-12-23T00:57:31.620Z,1002.22
2022-12-23T00:58:31.636Z,1002.21
2022-12-23T00:59:39.297Z,1002.22
2022-12-23T01:00:31.587Z,1002.19
2022-12-23T01:01:31.723Z,1002.23
2022-12-23T01:02:31.669Z,1002.22
2022-12-23T01:03:31.623Z,1002.17
2022-12-23T01:04:31.547Z,1002.18
2022-12-23T01:05:31.616Z,1002.19
2022-12-23T01:06:31.541Z,1002.18
2022-12-23T01:07:31.465Z,1002.23
2022-12-23T01:08:31.459Z,1002.21
2022-12-23T01:09:31.457Z,1002.26
2022-12-23T01:10:31.438Z,1002.30
2022-12-23T01:11:34.181Z,1002.30
2022-12-23T01:12:31.427Z,1002.31
2022-12-23T01:13:31.443Z,1002.33
2022-12-23T01:14:31.414Z,1002.36
2022-12-23T01:15:31.394Z,1002.38
2022-12-23T01:16:31.666Z,1002.41
2022-12-23T01:17:31.492Z,1002.42
2022-12-23T01:18:31.356Z,1002.43
2022-12-23T01:19:31.324Z,1002.42
2022-12-23T01:20:31.285Z,1002.45
2022-12-23T01:21:31.275Z,1002.40
2022-12-23T01:22:31.294Z,1002.38
2022-12-23T01:23:31.238Z,1002.41
2022-12-23T01:24:31.245Z,1002.43
2022-12-23T01:25:31.218Z,1002.45
2022-12-23T01:26:31.210Z,1002.52
2022-12-23T01:27:31.207Z,1002.51
2022-12-23T01:28:31.204Z,1002.50
2022-12-23T01:29:31.196Z,1002.51
2022-12-23T01:30:31.152Z,1002.51
2022-12-23T01:31:31.180Z,1002.55
2022-12-23T01:32:31.151Z,1002.53
2022-12-23T01:33:31.119Z,1002.54
2022-12-23T01:34:36.454Z,1002.62
2022-12-23T01:35:32.109Z,1002.60
2022-12-23T01:36:31.069Z,1002.55
2022-12-23T01:37:31.049Z,1002.58
2022-12-23T01:38:31.029Z,1002.59
2022-12-23T01:39:31.082Z,1002.58
2022-12-23T01:40:31.024Z,1002.59
2022-12-23T01:41:31.011Z,1002.60
2022-12-23T01:42:30.970Z,1002.62
2022-12-23T01:43:31.012Z,1002.60
2022-12-23T01:44:38.582Z,1002.59
2022-12-23T01:45:40.668Z,1002.70
2022-12-23T01:46:31.066Z,1002.56
2022-12-23T01:47:30.945Z,1002.65
2022-12-23T01:48:30.926Z,1002.65
2022-12-23T01:49:30.988Z,1002.70
2022-12-23T01:50:30.982Z,1002.66
2022-12-23T01:51:31.687Z,1002.67
2022-12-23T01:52:30.876Z,1002.65
2022-12-23T01:53:30.949Z,1002.65
2022-12-23T01:54:30.894Z,1002.63
2022-12-23T01:55:30.831Z,1002.60
2022-12-23T01:56:30.789Z,1002.62
2022-12-23T01:57:30.794Z,1002.55
2022-12-23T01:58:30.752Z,1002.66
2022-12-23T01:59:30.844Z,1002.64
2022-12-23T02:00:30.751Z,1002.63
2022-12-23T02:01:30.905Z,1002.62
2022-12-23T02:02:30.857Z,1002.61
2022-12-23T02:03:30.814Z,1002.64
2022-12-23T02:04:30.686Z,1002.69
2022-12-23T02:05:30.672Z,1002.66
2022-12-23T02:06:30.668Z,1002.64
2022-12-23T02:07:30.650Z,1002.69
2022-12-23T02:08:30.631Z,1002.71
2022-12-23T02:09:30.627Z,1002.67
2022-12-23T02:10:30.607Z,1002.71
2022-12-23T02:11:30.558Z,1002.72
2022-12-23T02:12:30.584Z,1002.79
2022-12-23T02:13:30.533Z,1002.75
2022-12-23T02:14:30.530Z,1002.72
2022-12-23T02:15:30.534Z,1002.73
2022-12-23T02:16:30.574Z,1002.68
2022-12-23T02:17:30.496Z,1002.72
2022-12-23T02:18:30.482Z,1002.72
2022-12-23T02:19:30.467Z,1002.69
2022-12-23T02:20:30.440Z,1002.71
2022-12-23T02:21:30.446Z,1002.72
2022-12-23T02:22:30.433Z,1002.70
2022-12-23T02:23:30.418Z,1002.72
2022-12-23T02:24:30.411Z,1002.80
2022-12-23T02:25:30.405Z,1002.73
2022-12-23T02:26:30.376Z,1002.75
2022-12-23T02:27:30.336Z,1002.75
2022-12-23T02:28:30.350Z,1002.77
2022-12-23T02:29:30.331Z,1002.74
2022-12-23T02:30:30.340Z,1002.73
2022-12-23T02:31:30.362Z,1002.74
2022-12-23T02:32:30.289Z,1002.77
2022-12-23T02:33:30.280Z,1002.76
2022-12-23T02:34:30.307Z,1002.82
2022-12-23T02:35:30.268Z,1002.88
2022-12-23T02:36:30.214Z,1002.87
2022-12-23T02:37:30.216Z,1002.92
2022-12-23T02:38:30.208Z,1002.92
2022-12-23T02:39:30.317Z,1002.95
2022-12-23T02:40:30.181Z,1002.95
2022-12-23T02:41:30.162Z,1002.98
2022-12-23T02:42:30.136Z,1003.00
2022-12-23T02:43:30.113Z,1003.03
2022-12-23T02:44:30.121Z,1003.03
2022-12-23T02:45:30.126Z,1003.07
2022-12-23T02:46:30.125Z,1003.12
2022-12-23T02:47:30.065Z,1003.11
2022-12-23T02:48:30.035Z,1003.11
2022-12-23T02:49:30.118Z,1003.10
2022-12-23T02:50:30.034Z,1003.15
2022-12-23T02:51:30.032Z,1003.19
2022-12-23T02:52:30.034Z,1003.20
2022-12-23T02:53:29.991Z,1003.18
2022-12-23T02:54:29.973Z,1003.18
2022-12-23T02:55:29.957Z,1003.22
2022-12-23T02:56:29.925Z,1003.22
2022-12-23T02:57:29.915Z,1003.25
2022-12-23T02:58:29.916Z,1003.28
2022-12-23T02:59:29.920Z,1003.22
2022-12-23T03:00:29.886Z,1003.23
2022-12-23T03:01:30.071Z,1003.22
2022-12-23T03:02:30.034Z,1003.30
2022-12-23T03:03:29.888Z,1003.24
2022-12-23T03:04:29.827Z,1003.25
2022-12-23T03:05:29.836Z,1003.26
2022-12-23T03:06:29.805Z,1003.26
2022-12-23T03:07:29.773Z,1003.25
2022-12-23T03:08:29.791Z,1003.28
2022-12-23T03:09:29.815Z,1003.33
2022-12-23T03:10:29.742Z,1003.29
2022-12-23T03:11:29.720Z,1003.32
2022-12-23T03:12:29.712Z,1003.28
2022-12-23T03:13:29.696Z,1003.31
2022-12-23T03:14:29.693Z,1003.31
2022-12-23T03:15:29.753Z,1003.32
2022-12-23T03:16:29.760Z,1003.44
2022-12-23T03:17:29.645Z,1003.43
2022-12-23T03:18:29.619Z,1003.42
2022-12-23T03:19:29.622Z,1003.44
2022-12-23T03:20:29.624Z,1003.46
2022-12-23T03:21:29.606Z,1003.54
2022-12-23T03:22:29.566Z,1003.59
2022-12-23T03:23:29.565Z,1003.57
2022-12-23T03:24:29.565Z,1003.61
2022-12-23T03:25:29.534Z,1003.59
2022-12-23T03:26:29.526Z,1003.63
2022-12-23T03:27:29.505Z,1003.66
2022-12-23T03:28:29.484Z,1003.67
2022-12-23T03:29:29.499Z,1003.66
2022-12-23T03:30:29.447Z,1003.70
2022-12-23T03:31:29.551Z,1003.70
2022-12-23T03:32:29.494Z,1003.66
2022-12-23T03:33:29.426Z,1003.67
2022-12-23T03:34:29.419Z,1003.66
2022-12-23T03:35:29.387Z,1003.68
2022-12-23T03:36:29.399Z,1003.67
2022-12-23T03:37:29.384Z,1003.65
2022-12-23T03:38:29.345Z,1003.65
2022-12-23T03:39:29.367Z,1003.58
2022-12-23T03:40:29.306Z,1003.59
2022-12-23T03:41:29.300Z,1003.60
2022-12-23T03:42:29.295Z,1003.59
2022-12-23T03:43:29.278Z,1003.60
2022-12-23T03:44:29.299Z,1003.57
2022-12-23T03:45:38.652Z,1003.63
2022-12-23T03:46:30.315Z,1003.57
2022-12-23T03:47:29.215Z,1003.56
2022-12-23T03:48:29.229Z,1003.61
2022-12-23T03:49:29.208Z,1003.62
2022-12-23T03:50:29.185Z,1003.59
2022-12-23T03:51:29.180Z,1003.60
2022-12-23T03:52:29.169Z,1003.65
2022-12-23T03:53:29.163Z,1003.64
2022-12-23T03:54:29.131Z,1003.62
2022-12-23T03:55:29.113Z,1003.55
2022-12-23T03:56:29.088Z,1003.55
2022-12-23T03:57:29.088Z,1003.54
2022-12-23T03:58:29.068Z,1003.55
2022-12-23T03:59:29.101Z,1003.55
2022-12-23T04:00:29.048Z,1003.55
2022-12-23T04:01:29.079Z,1003.55
2022-12-23T04:02:29.091Z,1003.57
2022-12-23T04:03:29.020Z,1003.53
2022-12-23T04:04:28.970Z,1003.50
2022-12-23T04:05:28.981Z,1003.53
2022-12-23T04:06:28.942Z,1003.55
2022-12-23T04:07:28.967Z,1003.58
2022-12-23T04:08:28.913Z,1003.53
2022-12-23T04:09:28.915Z,1003.57
2022-12-23T04:10:28.891Z,1003.53
2022-12-23T04:11:28.901Z,1003.58
2022-12-23T04:12:28.867Z,1003.56
2022-12-23T04:13:28.837Z,1003.59
2022-12-23T04:14:28.825Z,1003.61
2022-12-23T04:15:28.845Z,1003.65
2022-12-23T04:16:28.851Z,1003.63
2022-12-23T04:17:28.791Z,1003.67
2022-12-23T04:18:28.775Z,1003.65
2022-12-23T04:19:28.765Z,1003.62
2022-12-23T04:20:28.764Z,1003.72
2022-12-23T04:21:28.756Z,1003.68
2022-12-23T04:22:28.717Z,1003.65
2022-12-23T04:23:28.709Z,1003.69
2022-12-23T04:24:28.694Z,1003.61
2022-12-23T04:25:28.663Z,1003.63
2022-12-23T04:26:28.678Z,1003.66
2022-12-23T04:27:28.662Z,1003.65
2022-12-23T04:28:28.631Z,1003.64
2022-12-23T04:29:28.625Z,1003.63
2022-12-23T04:30:33.881Z,1003.62
2022-12-23T04:31:29.690Z,1003.60
2022-12-23T04:32:28.568Z,1003.67
2022-12-23T04:33:28.564Z,1003.70
2022-12-23T04:34:28.577Z,1003.65
2022-12-23T04:35:28.536Z,1003.70
2022-12-23T04:36:28.515Z,1003.70
2022-12-23T04:37:28.521Z,1003.65
2022-12-23T04:38:28.504Z,1003.65
2022-12-23T04:39:28.468Z,1003.69
2022-12-23T04:40:28.487Z,1003.67
2022-12-23T04:41:28.443Z,1003.69
2022-12-23T04:42:28.457Z,1003.69
2022-12-23T04:43:28.482Z,1003.72
2022-12-23T04:44:28.436Z,1003.70
2022-12-23T04:45:28.415Z,1003.73
2022-12-23T04:46:28.427Z,1003.76
2022-12-23T04:47:28.364Z,1003.73
2022-12-23T04:48:28.357Z,1003.72
2022-12-23T04:49:28.357Z,1003.70
2022-12-23T04:50:28.334Z,1003.73
2022-12-23T04:51:28.392Z,1003.74
2022-12-23T04:52:28.377Z,1003.75
2022-12-23T04:53:28.275Z,1003.74
2022-12-23T04:54:28.265Z,1003.79
2022-12-23T04:55:28.246Z,1003.78
2022-12-23T04:56:28.289Z,1003.74
2022-12-23T04:57:28.255Z,1003.78
2022-12-23T04:58:28.238Z,1003.72
2022-12-23T04:59:28.249Z,1003.76
2022-12-23T05:00:28.231Z,1003.77
2022-12-23T05:01:28.310Z,1003.83
2022-12-23T05:02:28.273Z,1003.82
2022-12-23T05:03:28.226Z,1003.87
2022-12-23T05:04:28.170Z,1003.86
2022-12-23T05:05:28.108Z,1003.83
2022-12-23T05:06:28.123Z,1003.85
2022-12-23T05:07:28.087Z,1003.82
2022-12-23T05:08:28.123Z,1003.90
2022-12-23T05:09:28.107Z,1003.89
2022-12-23T05:10:28.029Z,1003.85
2022-12-23T05:11:28.018Z,1003.83
2022-12-23T05:12:28.062Z,1003.85
2022-12-23T05:13:28.030Z,1003.87
2022-12-23T05:14:27.998Z,1003.88
2022-12-23T05:15:27.996Z,1003.90
2022-12-23T05:16:27.979Z,1003.87
2022-12-23T05:17:28.010Z,1003.89
2022-12-23T05:18:27.937Z,1003.83
2022-12-23T05:19:27.929Z,1003.86
2022-12-23T05:20:27.973Z,1003.85
2022-12-23T05:21:27.895Z,1003.80
2022-12-23T05:22:27.897Z,1003.71
2022-12-23T05:23:27.887Z,1003.76
2022-12-23T05:24:27.854Z,1003.77
2022-12-23T05:25:27.820Z,1003.82
2022-12-23T05:26:27.861Z,1003.76
2022-12-23T05:27:27.807Z,1003.80
2022-12-23T05:28:27.808Z,1003.80
2022-12-23T05:29:27.810Z,1003.77
2022-12-23T05:30:27.793Z,1003.74
2022-12-23T05:31:27.824Z,1003.69
2022-12-23T05:32:27.764Z,1003.71
2022-12-23T05:33:27.743Z,1003.74
2022-12-23T05:34:27.862Z,1003.75
2022-12-23T05:35:27.693Z,1003.77
2022-12-23T05:36:27.713Z,1003.79
2022-12-23T05:37:27.707Z,1003.76
2022-12-23T05:38:27.658Z,1003.81
2022-12-23T05:39:27.651Z,1003.77
2022-12-23T05:40:29.504Z,1003.80
2022-12-23T05:41:27.636Z,1003.75
2022-12-23T05:42:27.590Z,1003.77
2022-12-23T05:43:27.625Z,1003.82
2022-12-23T05:44:27.555Z,1003.81
2022-12-23T05:45:27.602Z,1003.81
2022-12-23T05:46:27.661Z,1003.84
2022-12-23T05:47:27.496Z,1003.88
2022-12-23T05:48:36.444Z,1003.92
2022-12-23T05:49:27.520Z,1003.93
2022-12-23T05:50:35.203Z,1003.99
2022-12-23T05:51:35.205Z,1004.00
2022-12-23T05:52:39.993Z,1004.04
2022-12-23T05:53:27.489Z,1004.03
2022-12-23T05:54:36.157Z,1004.04
2022-12-23T05:55:27.480Z,1004.09
2022-12-23T05:56:27.779Z,1004.11
2022-12-23T05:57:27.479Z,1004.11
2022-12-23T05:58:27.456Z,1004.11
2022-12-23T05:59:31.051Z,1004.12
2022-12-23T06:00:27.335Z,1004.18
2022-12-23T06:01:27.359Z,1004.18
2022-12-23T06:02:27.431Z,1004.20
2022-12-23T06:03:27.423Z,1004.19
2022-12-23T06:04:27.397Z,1004.21
2022-12-23T06:05:27.270Z,1004.23
2022-12-23T06:06:27.330Z,1004.22
2022-12-23T06:07:27.270Z,1004.24
2022-12-23T06:08:27.225Z,1004.24
2022-12-23T06:09:27.205Z,1004.26
2022-12-23T06:10:27.229Z,1004.28
2022-12-23T06:11:27.216Z,1004.28
2022-12-23T06:12:27.189Z,1004.28
2022-12-23T06:13:27.267Z,1004.31
2022-12-23T06:14:29.288Z,1004.31
2022-12-23T06:15:27.105Z,1004.32
2022-12-23T06:16:27.147Z,1004.30
2022-12-23T06:17:27.162Z,1004.30
2022-12-23T06:18:27.388Z,1004.34
2022-12-23T06:19:27.094Z,1004.30
2022-12-23T06:20:27.067Z,1004.32
2022-12-23T06:21:27.029Z,1004.37
2022-12-23T06:22:27.128Z,1004.40
2022-12-23T06:23:27.015Z,1004.39
2022-12-23T06:24:27.171Z,1004.40
2022-12-23T06:25:26.990Z,1004.42
2022-12-23T06:26:26.979Z,1004.39
2022-12-23T06:27:26.955Z,1004.39
2022-12-23T06:28:26.979Z,1004.37
2022-12-23T06:29:26.963Z,1004.38
2022-12-23T06:30:26.975Z,1004.39
2022-12-23T06:31:27.280Z,1004.33
2022-12-23T06:32:26.948Z,1004.32
2022-12-23T06:33:26.883Z,1004.26
2022-12-23T06:34:26.923Z,1004.27
2022-12-23T06:35:26.968Z,1004.27
2022-12-23T06:36:26.854Z,1004.24
2022-12-23T06:37:26.790Z,1004.28
2022-12-23T06:38:26.823Z,1004.21
2022-12-23T06:39:26.779Z,1004.14
2022-12-23T06:40:26.815Z,1004.18
2022-12-23T06:41:26.769Z,1004.19
2022-12-23T06:42:26.767Z,1004.17
2022-12-23T06:43:26.723Z,1004.21
2022-12-23T06:44:26.707Z,1004.21
2022-12-23T06:45:26.713Z,1004.23
2022-12-23T06:46:26.796Z,1004.17
2022-12-23T06:47:26.669Z,1004.18
2022-12-23T06:48:26.665Z,1004.17
2022-12-23T06:49:26.645Z,1004.16
2022-12-23T06:50:26.641Z,1004.14
2022-12-23T06:51:26.661Z,1004.12
2022-12-23T06:52:26.610Z,1004.10
2022-12-23T06:53:26.573Z,1004.08
2022-12-23T06:54:26.578Z,1004.08
2022-12-23T06:55:26.572Z,1004.09
2022-12-23T06:56:26.547Z,1004.08
2022-12-23T06:57:26.590Z,1004.09
2022-12-23T06:58:26.526Z,1004.12
2022-12-23T06:59:26.540Z,1004.12
2022-12-23T07:01:53.588Z,1004.12
2022-12-23T07:02:04.477Z,1004.12
2022-12-23T07:04:25.386Z,1004.07
2022-12-23T07:04:57.423Z,1004.09
2022-12-23T07:05:36.693Z,1004.14
2022-12-23T07:06:31.184Z,1004.19
2022-12-23T07:07:30.149Z,1004.20
2022-12-23T07:08:30.149Z,1004.26
2022-12-23T07:09:30.113Z,1004.26
2022-12-23T07:10:30.224Z,1004.32
2022-12-23T07:11:29.990Z,1004.31
2022-12-23T07:12:30.031Z,1004.31
2022-12-23T07:13:29.982Z,1004.31
2022-12-23T07:14:29.994Z,1004.31
2022-12-23T07:15:29.989Z,1004.31
2022-12-23T07:16:29.954Z,1004.36
2022-12-23T07:17:29.918Z,1004.45
2022-12-23T07:18:29.896Z,1004.44
2022-12-23T07:19:30.057Z,1004.49
2022-12-23T07:20:29.876Z,1004.50
2022-12-23T07:21:30.358Z,1004.52
2022-12-23T07:22:29.823Z,1004.57
2022-12-23T07:23:29.811Z,1004.57
2022-12-23T07:24:29.795Z,1004.61
2022-12-23T07:25:29.840Z,1004.67
2022-12-23T07:26:29.828Z,1004.69
2022-12-23T07:27:29.797Z,1004.72
2022-12-23T07:28:29.782Z,1004.75
2022-12-23T07:29:29.767Z,1004.80
2022-12-23T07:30:29.729Z,1004.81
2022-12-23T07:31:29.820Z,1004.83
2022-12-23T07:32:29.695Z,1004.89
2022-12-23T07:33:29.702Z,1004.91
2022-12-23T07:34:29.766Z,1004.99
2022-12-23T07:35:29.685Z,1005.01
2022-12-23T07:36:29.664Z,1004.98
2022-12-23T07:37:29.677Z,1005.01
2022-12-23T07:38:29.651Z,1005.09
2022-12-23T07:39:29.710Z,1005.10
2022-12-23T07:40:29.579Z,1005.10
2022-12-23T07:41:29.562Z,1005.01
2022-12-23T07:42:46.805Z,1005.00
2022-12-23T07:43:30.571Z,1004.98
2022-12-23T07:44:29.694Z,1004.97
2022-12-23T07:45:29.660Z,1004.99
2022-12-23T07:46:29.551Z,1004.99
2022-12-23T07:47:29.517Z,1005.01
2022-12-23T07:48:29.672Z,1004.95
2022-12-23T07:49:29.510Z,1004.94
2022-12-23T07:50:29.460Z,1004.96
2022-12-23T07:51:29.444Z,1004.91
2022-12-23T07:52:29.414Z,1004.99
2022-12-23T07:53:29.398Z,1005.01
2022-12-23T07:54:29.373Z,1004.96
2022-12-23T07:55:29.399Z,1004.93
2022-12-23T07:56:29.366Z,1004.87
2022-12-23T07:57:29.465Z,1004.91
2022-12-23T07:58:29.336Z,1004.84
2022-12-23T07:59:29.372Z,1004.84
2022-12-23T08:00:29.351Z,1004.85
2022-12-23T08:01:29.464Z,1004.90
2022-12-23T08:02:29.374Z,1004.80
2022-12-23T08:03:29.339Z,1004.76
2022-12-23T08:04:29.268Z,1004.80
2022-12-23T08:05:29.300Z,1004.87
2022-12-23T08:06:29.295Z,1004.90
2022-12-23T08:07:29.236Z,1004.89
2022-12-23T08:08:29.212Z,1004.87
2022-12-23T08:09:29.179Z,1004.84
2022-12-23T08:10:29.233Z,1004.84
2022-12-23T08:11:29.172Z,1004.80
2022-12-23T08:12:29.166Z,1004.76
2022-12-23T08:13:29.163Z,1004.74
2022-12-23T08:14:29.153Z,1004.71
2022-12-23T08:15:29.157Z,1004.72
2022-12-23T08:16:29.115Z,1004.75
2022-12-23T08:17:29.071Z,1004.78
2022-12-23T08:18:29.054Z,1004.80
2022-12-23T08:19:29.105Z,1004.79
2022-12-23T08:20:29.086Z,1004.77
2022-12-23T08:21:29.041Z,1004.79
2022-12-23T08:22:29.010Z,1004.85
2022-12-23T08:23:28.968Z,1004.83
2022-12-23T08:24:29.008Z,1004.87
2022-12-23T08:25:28.974Z,1004.90
2022-12-23T08:26:28.959Z,1004.90
2022-12-23T08:27:28.944Z,1004.88
2022-12-23T08:28:28.910Z,1004.87
2022-12-23T08:29:34.172Z,1004.87
2022-12-23T08:30:29.976Z,1004.85
2022-12-23T08:31:29.045Z,1004.84
2022-12-23T08:32:28.872Z,1004.82
2022-12-23T08:33:28.864Z,1004.81
2022-12-23T08:34:29.823Z,1004.83
2022-12-23T08:35:28.853Z,1004.84
2022-12-23T08:36:28.794Z,1004.83
2022-12-23T08:37:28.781Z,1004.81
2022-12-23T08:38:28.774Z,1004.83
2022-12-23T08:39:29.143Z,1004.78
2022-12-23T08:40:28.785Z,1004.82
2022-12-23T08:41:28.857Z,1004.80
2022-12-23T08:42:28.730Z,1004.83
2022-12-23T08:43:35.284Z,1004.82
2022-12-23T08:44:29.767Z,1004.78
2022-12-23T08:45:28.662Z,1004.76
2022-12-23T08:46:28.711Z,1004.64
2022-12-23T08:47:28.702Z,1004.62
2022-12-23T08:48:28.647Z,1004.61
2022-12-23T08:49:28.633Z,1004.64
2022-12-23T08:50:28.682Z,1004.74
2022-12-23T08:51:28.588Z,1004.75
2022-12-23T08:52:28.645Z,1004.76
2022-12-23T08:53:28.657Z,1004.75
2022-12-23T08:54:28.541Z,1004.76
2022-12-23T08:55:28.537Z,1004.78
2022-12-23T08:56:28.514Z,1004.78
2022-12-23T08:57:28.715Z,1004.79
2022-12-23T08:58:28.597Z,1004.83
2022-12-23T08:59:28.487Z,1004.81
2022-12-23T09:00:28.469Z,1004.80
2022-12-23T09:01:28.656Z,1004.80
2022-12-23T09:02:28.594Z,1004.78
2022-12-23T09:03:28.557Z,1004.79
2022-12-23T09:04:28.407Z,1004.77
2022-12-23T09:05:28.422Z,1004.74
2022-12-23T09:06:30.465Z,1004.74
2022-12-23T09:07:28.371Z,1004.70
2022-12-23T09:08:28.354Z,1004.71
2022-12-23T09:09:28.323Z,1004.74
2022-12-23T09:10:28.354Z,1004.75
2022-12-23T09:11:28.326Z,1004.74
2022-12-23T09:12:28.314Z,1004.72
2022-12-23T09:13:35.305Z,1004.68
2022-12-23T09:14:29.272Z,1004.64
2022-12-23T09:15:28.372Z,1004.64
2022-12-23T09:16:28.333Z,1004.69
2022-12-23T09:17:28.235Z,1004.70
2022-12-23T09:18:28.244Z,1004.70
2022-12-23T09:19:28.186Z,1004.70
2022-12-23T09:20:28.169Z,1004.71
2022-12-23T09:21:28.202Z,1004.71
2022-12-23T09:22:28.204Z,1004.71
2022-12-23T09:23:28.131Z,1004.76
2022-12-23T09:24:28.158Z,1004.74
2022-12-23T09:25:28.088Z,1004.70
2022-12-23T09:26:28.098Z,1004.75
2022-12-23T09:27:28.084Z,1004.74
2022-12-23T09:28:28.045Z,1004.78
2022-12-23T09:29:28.054Z,1004.77
2022-12-23T09:30:28.068Z,1004.75
2022-12-23T09:31:34.310Z,1004.75
2022-12-23T09:32:29.015Z,1004.76
2022-12-23T09:33:27.995Z,1004.74
2022-12-23T09:34:27.978Z,1004.68
2022-12-23T09:35:27.969Z,1004.72
2022-12-23T09:36:27.951Z,1004.66
2022-12-23T09:37:27.960Z,1004.63
2022-12-23T09:38:27.912Z,1004.64
2022-12-23T09:39:27.899Z,1004.59
2022-12-23T09:40:27.886Z,1004.57
2022-12-23T09:41:27.882Z,1004.54
2022-12-23T09:42:27.886Z,1004.53
2022-12-23T09:43:27.874Z,1004.45
2022-12-23T09:44:27.839Z,1004.43
2022-12-23T09:45:27.826Z,1004.48
2022-12-23T09:46:27.848Z,1004.51
2022-12-23T09:47:27.781Z,1004.54
2022-12-23T09:48:27.786Z,1004.51
2022-12-23T09:49:27.773Z,1004.45
2022-12-23T09:50:27.763Z,1004.42
2022-12-23T09:51:27.718Z,1004.40
2022-12-23T09:52:27.722Z,1004.48
2022-12-23T09:53:27.700Z,1004.50
2022-12-23T09:54:27.711Z,1004.50
2022-12-23T09:55:27.703Z,1004.54
2022-12-23T09:56:27.666Z,1004.54
2022-12-23T09:57:27.656Z,1004.56
2022-12-23T09:58:27.656Z,1004.53
2022-12-23T09:59:27.640Z,1004.48
2022-12-23T10:00:27.613Z,1004.49
2022-12-23T10:01:27.658Z,1004.48
2022-12-23T10:02:27.807Z,1004.43
2022-12-23T10:03:27.694Z,1004.43
2022-12-23T10:04:27.573Z,1004.43
2022-12-23T10:05:27.548Z,1004.43
2022-12-23T10:06:27.511Z,1004.40
2022-12-23T10:07:27.493Z,1004.36
2022-12-23T10:08:27.499Z,1004.38
2022-12-23T10:09:27.476Z,1004.31
2022-12-23T10:10:27.478Z,1004.32
2022-12-23T10:11:27.443Z,1004.29
2022-12-23T10:12:29.580Z,1004.27
2022-12-23T10:13:27.402Z,1004.26
2022-12-23T10:14:27.406Z,1004.22
2022-12-23T10:15:27.386Z,1004.16
2022-12-23T10:16:27.410Z,1004.18
2022-12-23T10:17:27.358Z,1004.13
2022-12-23T10:18:27.338Z,1004.18
2022-12-23T10:19:27.374Z,1004.18
2022-12-23T10:20:27.307Z,1004.12
2022-12-23T10:21:27.311Z,1004.06
2022-12-23T10:22:27.290Z,1004.09
2022-12-23T10:23:27.280Z,1004.05
2022-12-23T10:24:27.259Z,1003.94
2022-12-23T10:25:27.234Z,1003.90
2022-12-23T10:26:27.223Z,1003.85
2022-12-23T10:27:27.222Z,1003.85
2022-12-23T10:28:29.833Z,1003.84
2022-12-23T10:29:27.167Z,1003.82
2022-12-23T10:30:53.824Z,1003.81
2022-12-23T10:31:40.231Z,1003.77
2022-12-23T10:32:28.175Z,1003.73
2022-12-23T10:33:27.119Z,1003.76
2022-12-23T10:34:27.109Z,1003.73
2022-12-23T10:35:27.103Z,1003.69
2022-12-23T10:36:27.248Z,1003.64
2022-12-23T10:37:27.065Z,1003.64
2022-12-23T10:38:27.063Z,1003.57
2022-12-23T10:39:27.103Z,1003.54
2022-12-23T10:40:27.035Z,1003.57
2022-12-23T10:41:27.009Z,1003.60
2022-12-23T10:42:27.026Z,1003.61
2022-12-23T10:43:26.986Z,1003.59
2022-12-23T10:44:26.978Z,1003.60
2022-12-23T10:45:26.939Z,1003.63
2022-12-23T10:46:27.019Z,1003.69
2022-12-23T10:47:26.951Z,1003.69
2022-12-23T10:48:26.927Z,1003.67
2022-12-23T10:49:26.884Z,1003.64
2022-12-23T10:50:26.879Z,1003.64
2022-12-23T10:51:26.920Z,1003.67
2022-12-23T10:52:26.867Z,1003.65
2022-12-23T10:53:26.820Z,1003.64
2022-12-23T10:54:26.816Z,1003.64
2022-12-23T10:55:32.972Z,1003.66
2022-12-23T10:56:27.788Z,1003.66
2022-12-23T10:57:26.777Z,1003.61
2022-12-23T10:58:26.774Z,1003.61
2022-12-23T10:59:26.751Z,1003.57
2022-12-23T11:00:26.768Z,1003.50
2022-12-23T11:01:27.764Z,1003.45
2022-12-23T11:02:26.836Z,1003.43
2022-12-23T11:03:26.798Z,1003.40
2022-12-23T11:04:27.626Z,1003.37
2022-12-23T11:05:26.651Z,1003.34
2022-12-23T11:06:31.508Z,1003.34
2022-12-23T11:07:44.074Z,1003.32
2022-12-23T11:08:27.643Z,1003.26
2022-12-23T11:09:26.603Z,1003.23
2022-12-23T11:10:26.582Z,1003.23
2022-12-23T11:11:26.571Z,1003.22
2022-12-23T11:12:26.550Z,1003.20
2022-12-23T11:13:26.540Z,1003.17
2022-12-23T11:14:26.659Z,1003.17
2022-12-23T11:15:26.511Z,1003.12
2022-12-23T11:16:26.546Z,1003.12
2022-12-23T11:17:26.487Z,1003.11
2022-12-23T11:18:26.473Z,1003.11
2022-12-23T11:19:26.473Z,1003.09
2022-12-23T11:20:26.487Z,1003.06
2022-12-23T11:21:26.459Z,1003.07
2022-12-23T11:22:26.434Z,1003.10
2022-12-23T11:23:26.475Z,1003.08
2022-12-23T11:24:26.484Z,1003.06
2022-12-23T11:25:26.388Z,1003.00
2022-12-23T11:26:26.387Z,1003.03
2022-12-23T11:27:26.336Z,1003.00
2022-12-23T11:28:26.335Z,1003.00
2022-12-23T11:29:26.318Z,1002.96
2022-12-23T11:30:26.323Z,1002.98
2022-12-23T11:31:26.339Z,1002.99
2022-12-23T11:32:26.262Z,1002.98
2022-12-23T11:33:26.268Z,1002.93
2022-12-23T11:34:26.333Z,1002.90
2022-12-23T11:35:26.268Z,1002.86
2022-12-23T11:36:26.212Z,1002.90
2022-12-23T11:37:26.200Z,1002.89
2022-12-23T11:38:26.186Z,1002.88
2022-12-23T11:39:26.233Z,1002.90
2022-12-23T11:40:26.184Z,1002.91
2022-12-23T11:41:26.176Z,1002.95
2022-12-23T11:42:26.127Z,1002.88
2022-12-23T11:43:26.115Z,1002.83
2022-12-23T11:44:26.147Z,1002.82
2022-12-23T11:45:26.149Z,1002.78
2022-12-23T11:46:26.152Z,1002.75
2022-12-23T11:47:26.061Z,1002.71
2022-12-23T11:48:26.034Z,1002.70
2022-12-23T11:49:26.050Z,1002.63
2022-12-23T11:50:26.018Z,1002.60
2022-12-23T11:51:25.988Z,1002.54
2022-12-23T11:52:25.982Z,1002.47
2022-12-23T11:53:25.982Z,1002.46
2022-12-23T11:54:25.981Z,1002.42
2022-12-23T11:55:25.945Z,1002.40
2022-12-23T11:56:26.008Z,1002.37
2022-12-23T11:57:25.899Z,1002.31
2022-12-23T11:58:25.888Z,1002.33
2022-12-23T11:59:25.865Z,1002.32
2022-12-23T12:00:25.896Z,1002.28
2022-12-23T12:01:25.861Z,1002.24
2022-12-23T12:02:25.846Z,1002.19
2022-12-23T12:03:25.887Z,1002.18
2022-12-23T12:04:25.799Z,1002.16
2022-12-23T12:05:25.782Z,1002.09
2022-12-23T12:06:25.794Z,1002.08